Terminal Aerodrome Forecast
Issued by NWS

Home | Current Version | Previous Version | Text Only | Print | Product List | Glossary On
Versions: 1 2 3 4 5 6 7 8 9 10 11 12 13 14 15 16 17 18 19 20
000
FTUS46 KMFR 251139
TAFOTH
TAF
KOTH 251139Z 2512/2612 01005KT P6SM OVC010
     FM251900 35018G25KT P6SM SCT020
     FM260200 35014G25KT P6SM BKN015
     FM260700 36010KT P6SM OVC010=

USA.gov is the U.S. government's official web portal to all federal, state and local government web resources and services.